createdAt,value
2018-05-13T00:01:20.933Z,101387.89
2018-05-13T00:03:49.506Z,101391.98
2018-05-13T00:06:17.806Z,101397.81
2018-05-13T00:08:46.874Z,101399.37
2018-05-13T00:11:15.406Z,101393.95
2018-05-13T00:13:43.752Z,101390.84
2018-05-13T00:16:12.137Z,101398.94
2018-05-13T00:18:40.705Z,101385.95
2018-05-13T00:21:09.030Z,101391.33
2018-05-13T00:23:37.497Z,101388.72
2018-05-13T00:26:06.068Z,101390.92
2018-05-13T00:28:34.453Z,101397.78
2018-05-13T00:31:02.820Z,101385.76
2018-05-13T00:33:31.623Z,101382.58
2018-05-13T00:36:00.018Z,101378.12
2018-05-13T00:38:28.434Z,101383.77
2018-05-13T00:40:57.068Z,101373.44
2018-05-13T00:43:25.430Z,101371.28
2018-05-13T00:45:53.782Z,101381.17
2018-05-13T00:48:22.144Z,101372.70
2018-05-13T00:50:50.474Z,101375.92
2018-05-13T00:53:18.822Z,101371.89
2018-05-13T00:55:47.181Z,101365.87
2018-05-13T00:58:16.538Z,101369.47
2018-05-13T01:00:44.883Z,101368.63
2018-05-13T01:03:13.257Z,101363.81
2018-05-13T01:05:41.565Z,101361.95
2018-05-13T01:08:09.914Z,101375.87
2018-05-13T01:10:39.247Z,101370.81
2018-05-13T01:13:07.593Z,101373.44
2018-05-13T01:15:35.967Z,101369.64
2018-05-13T01:18:04.483Z,101375.63
2018-05-13T01:20:32.859Z,101377.69
2018-05-13T01:23:01.320Z,101369.53
2018-05-13T01:25:30.049Z,101369.19
2018-05-13T01:27:58.488Z,101361.92
2018-05-13T01:30:27.034Z,101361.95
2018-05-13T01:32:55.784Z,101364.24
2018-05-13T01:35:24.172Z,101365.00
2018-05-13T01:37:52.518Z,101370.14
2018-05-13T01:40:20.891Z,101360.73
2018-05-13T01:42:49.279Z,101362.23
2018-05-13T01:45:17.655Z,101359.14
2018-05-13T01:47:46.048Z,101361.88
2018-05-13T01:50:14.407Z,101350.00
2018-05-13T01:52:42.763Z,101357.14
2018-05-13T01:55:11.174Z,101349.09
2018-05-13T01:57:39.572Z,101351.25
2018-05-13T02:00:08.908Z,101349.78
2018-05-13T02:02:37.749Z,101345.81
2018-05-13T02:05:06.265Z,101344.86
2018-05-13T02:07:34.718Z,101332.05
2018-05-13T02:10:03.546Z,101338.87
2018-05-13T02:12:32.004Z,101340.95
2018-05-13T02:15:00.481Z,101336.55
2018-05-13T02:17:29.046Z,101337.23
2018-05-13T02:19:57.517Z,101330.34
2018-05-13T02:22:25.890Z,101322.16
2018-05-13T02:24:54.253Z,101315.59
2018-05-13T02:27:23.556Z,101322.52
2018-05-13T02:29:51.882Z,101312.83
2018-05-13T02:32:20.743Z,101317.94
2018-05-13T02:34:49.083Z,101314.35
2018-05-13T02:37:17.411Z,101306.71
2018-05-13T02:39:45.792Z,101314.47
2018-05-13T02:42:14.115Z,101317.75
2018-05-13T02:44:42.482Z,101315.56
2018-05-13T02:47:11.474Z,101312.99
2018-05-13T02:49:40.054Z,101320.75
2018-05-13T02:52:08.521Z,101313.36
2018-05-13T02:54:37.035Z,101308.78
2018-05-13T02:57:05.602Z,101304.02
2018-05-13T02:59:33.950Z,101292.73
2018-05-13T03:02:02.456Z,101292.08
2018-05-13T03:04:30.858Z,101297.39
2018-05-13T03:06:59.315Z,101302.61
2018-05-13T03:09:27.728Z,101306.64
2018-05-13T03:11:56.076Z,101309.31
2018-05-13T03:14:24.448Z,101306.98
2018-05-13T03:16:52.877Z,101305.89
2018-05-13T03:19:21.287Z,101296.34
2018-05-13T03:21:49.634Z,101292.80
2018-05-13T03:24:18.023Z,101291.59
2018-05-13T03:26:46.320Z,101286.28
2018-05-13T03:29:14.637Z,101282.77
2018-05-13T03:31:43.122Z,101281.72
2018-05-13T03:34:11.437Z,101280.87
2018-05-13T03:36:39.774Z,101277.87
2018-05-13T03:39:08.137Z,101282.27
2018-05-13T03:41:36.519Z,101284.03
2018-05-13T03:44:04.910Z,101283.92
2018-05-13T03:46:33.386Z,101293.84
2018-05-13T03:49:01.863Z,101287.92
2018-05-13T03:51:30.381Z,101285.78
2018-05-13T03:53:59.025Z,101290.72
2018-05-13T03:56:27.440Z,101285.53
2018-05-13T03:58:55.807Z,101279.88
2018-05-13T04:01:24.226Z,101275.66
2018-05-13T04:03:52.573Z,101280.53
2018-05-13T04:06:20.943Z,101273.97
2018-05-13T04:09:01.091Z,101275.66
2018-05-13T04:11:44.083Z,101277.56
2018-05-13T04:14:24.043Z,101279.64
2018-05-13T04:16:52.410Z,101275.02
2018-05-13T04:19:20.742Z,101277.22
2018-05-13T04:21:50.137Z,101275.73
2018-05-13T04:24:18.476Z,101272.77
2018-05-13T04:26:47.148Z,101273.91
2018-05-13T04:29:15.536Z,101273.50
2018-05-13T04:31:43.892Z,101271.30
2018-05-13T04:34:12.228Z,101271.73
2018-05-13T04:36:40.609Z,101267.39
2018-05-13T04:39:08.986Z,101261.61
2018-05-13T04:41:37.375Z,101269.00
2018-05-13T04:44:05.899Z,101261.05
2018-05-13T04:46:34.228Z,101266.66
2018-05-13T04:49:02.561Z,101262.84
2018-05-13T04:51:31.377Z,101269.28
2018-05-13T04:53:59.778Z,101272.62
2018-05-13T04:56:28.323Z,101272.86
2018-05-13T04:58:57.161Z,101264.81
2018-05-13T05:01:25.529Z,101272.05
2018-05-13T05:03:53.856Z,101270.47
2018-05-13T05:06:22.235Z,101272.68
2018-05-13T05:08:50.524Z,101266.64
2018-05-13T05:11:18.896Z,101269.08
2018-05-13T05:13:47.269Z,101265.33
2018-05-13T05:16:15.624Z,101254.42
2018-05-13T05:18:43.966Z,101260.47
2018-05-13T05:21:12.338Z,101262.95
2018-05-13T05:23:40.773Z,101262.31
2018-05-13T05:26:09.104Z,101261.31
2018-05-13T05:28:37.492Z,101264.50
2018-05-13T05:31:06.012Z,101266.42
2018-05-13T05:33:34.415Z,101263.31
2018-05-13T05:36:03.031Z,101262.02
2018-05-13T05:38:31.445Z,101264.16
2018-05-13T05:40:59.985Z,101263.85
2018-05-13T05:43:28.414Z,101258.64
2018-05-13T05:45:56.859Z,101260.47
2018-05-13T05:48:25.172Z,101257.16
2018-05-13T05:50:53.536Z,101257.86
2018-05-13T05:53:21.874Z,101251.06
2018-05-13T05:55:50.198Z,101253.63
2018-05-13T05:58:18.849Z,101251.49
2018-05-13T06:00:47.201Z,101245.25
2018-05-13T06:03:15.565Z,101252.28
2018-05-13T06:05:44.809Z,101253.27
2018-05-13T06:08:13.289Z,101249.12
2018-05-13T06:10:41.593Z,101257.67
2018-05-13T06:13:10.390Z,101249.66
2018-05-13T06:15:38.743Z,101251.02
2018-05-13T06:18:07.098Z,101245.80
2018-05-13T06:20:35.884Z,101252.06
2018-05-13T06:23:04.272Z,101251.86
2018-05-13T06:25:32.647Z,101245.30
2018-05-13T06:28:01.616Z,101249.67
2018-05-13T06:30:30.118Z,101248.53
2018-05-13T06:32:58.626Z,101255.42
2018-05-13T06:35:27.150Z,101240.94
2018-05-13T06:37:55.561Z,101251.42
2018-05-13T06:40:24.010Z,101251.03
2018-05-13T06:42:52.385Z,101245.55
2018-05-13T06:45:20.749Z,101257.68
2018-05-13T06:47:50.020Z,101257.39
2018-05-13T06:50:18.393Z,101251.19
2018-05-13T06:52:46.753Z,101254.28
2018-05-13T06:55:15.130Z,101251.02
2018-05-13T06:57:43.488Z,101252.30
2018-05-13T07:00:11.818Z,101252.70
2018-05-13T07:02:40.273Z,101252.98
2018-05-13T07:05:08.968Z,101259.87
2018-05-13T07:07:37.298Z,101251.34
2018-05-13T07:10:05.708Z,101254.00
2018-05-13T07:12:34.415Z,101251.55
2018-05-13T07:15:02.904Z,101248.70
2018-05-13T07:17:31.459Z,101246.76
2018-05-13T07:19:59.917Z,101253.22
2018-05-13T07:22:28.368Z,101249.09
2018-05-13T07:24:56.948Z,101238.70
2018-05-13T07:27:25.333Z,101240.72
2018-05-13T07:29:53.687Z,101232.91
2018-05-13T07:32:22.011Z,101242.44
2018-05-13T07:34:50.357Z,101239.71
2018-05-13T07:37:18.707Z,101234.20
2018-05-13T07:39:47.044Z,101237.56
2018-05-13T07:42:15.545Z,101238.36
2018-05-13T07:44:43.866Z,101238.34
2018-05-13T07:47:12.232Z,101241.38
2018-05-13T07:49:40.664Z,101245.21
2018-05-13T07:52:09.081Z,101245.06
2018-05-13T07:54:37.542Z,101237.81
2018-05-13T07:57:06.275Z,101238.78
2018-05-13T07:59:34.734Z,101237.61
2018-05-13T08:02:03.144Z,101241.22
2018-05-13T08:07:23.322Z,101238.66
2018-05-13T08:09:52.410Z,101239.34
2018-05-13T08:12:20.866Z,101243.97
2018-05-13T08:14:49.375Z,101245.43
2018-05-13T08:17:17.860Z,101243.71
2018-05-13T08:19:46.546Z,101246.48
2018-05-13T08:22:15.196Z,101245.75
2018-05-13T08:24:43.534Z,101246.27
2018-05-13T08:27:12.512Z,101241.83
2018-05-13T08:29:41.324Z,101250.93
2018-05-13T08:32:09.761Z,101242.41
2018-05-13T08:34:38.145Z,101237.95
2018-05-13T08:37:06.593Z,101237.25
2018-05-13T08:39:35.341Z,101237.78
2018-05-13T08:42:03.801Z,101248.42
2018-05-13T08:44:32.210Z,101236.29
2018-05-13T08:47:00.760Z,101239.05
2018-05-13T08:49:29.306Z,101246.42
2018-05-13T08:51:59.279Z,101232.25
2018-05-13T08:54:27.646Z,101233.16
2018-05-13T08:56:55.995Z,101232.16
2018-05-13T08:59:25.643Z,101231.64
2018-05-13T09:01:54.416Z,101232.03
2018-05-13T09:04:23.721Z,101231.30
2018-05-13T09:06:52.251Z,101238.02
2018-05-13T09:09:20.575Z,101229.45
2018-05-13T09:11:48.959Z,101236.52
2018-05-13T09:14:17.704Z,101232.23
2018-05-13T09:16:46.187Z,101229.54
2018-05-13T09:19:14.635Z,101230.50
2018-05-13T09:21:43.013Z,101227.22
2018-05-13T09:24:11.451Z,101221.05
2018-05-13T09:26:40.048Z,101221.05
2018-05-13T09:29:09.263Z,101221.86
2018-05-13T09:31:37.654Z,101221.56
2018-05-13T09:34:06.173Z,101217.52
2018-05-13T09:36:35.320Z,101218.12
2018-05-13T09:39:05.299Z,101217.09
2018-05-13T09:41:33.705Z,101212.16
2018-05-13T09:44:02.986Z,101222.82
2018-05-13T09:46:32.152Z,101216.96
2018-05-13T09:49:00.906Z,101217.69
2018-05-13T09:51:30.042Z,101212.42
2018-05-13T09:53:59.681Z,101211.72
2018-05-13T09:56:28.336Z,101215.42
2018-05-13T09:58:57.325Z,101214.29
2018-05-13T10:01:25.825Z,101217.34
2018-05-13T10:03:54.139Z,101213.59
2018-05-13T10:06:23.298Z,101211.86
2018-05-13T10:08:51.619Z,101218.05
2018-05-13T10:11:19.945Z,101205.66
2018-05-13T10:13:49.696Z,101196.22
2018-05-13T10:16:18.082Z,101210.23
2018-05-13T10:18:46.431Z,101209.83
2018-05-13T10:21:14.883Z,101200.69
2018-05-13T10:23:43.315Z,101197.83
2018-05-13T10:26:11.675Z,101202.14
2018-05-13T10:28:40.054Z,101205.02
2018-05-13T10:31:08.433Z,101200.02
2018-05-13T10:33:36.815Z,101199.20
2018-05-13T10:36:05.852Z,101205.28
2018-05-13T10:38:34.269Z,101199.50
2018-05-13T10:41:02.798Z,101195.96
2018-05-13T10:43:31.532Z,101196.63
2018-05-13T10:45:59.946Z,101196.59
2018-05-13T10:48:28.375Z,101194.11
2018-05-13T10:50:58.393Z,101190.73
2018-05-13T10:53:27.054Z,101194.65
2018-05-13T10:55:55.380Z,101182.93
2018-05-13T10:58:23.757Z,101179.00
2018-05-13T11:00:52.102Z,101187.84
2018-05-13T11:03:20.458Z,101179.77
2018-05-13T11:05:49.486Z,101181.44
2018-05-13T11:08:18.039Z,101181.98
2018-05-13T11:10:46.350Z,101184.43
2018-05-13T11:13:15.230Z,101179.73
2018-05-13T11:15:43.556Z,101177.19
2018-05-13T11:18:11.891Z,101183.73
2018-05-13T11:20:40.444Z,101173.45
2018-05-13T11:23:08.839Z,101171.04
2018-05-13T11:25:37.285Z,101166.88
2018-05-13T11:28:05.711Z,101166.59
2018-05-13T11:30:34.327Z,101170.25
2018-05-13T11:33:02.876Z,101171.39
2018-05-13T11:35:32.136Z,101164.27
2018-05-13T11:38:01.224Z,101158.39
2018-05-13T11:40:29.696Z,101167.41
2018-05-13T11:42:58.162Z,101156.89
2018-05-13T11:45:26.636Z,101153.97
2018-05-13T11:47:55.000Z,101151.87
2018-05-13T11:50:23.590Z,101154.05
2018-05-13T11:52:52.162Z,101156.23
2018-05-13T11:55:20.479Z,101151.48
2018-05-13T11:57:49.929Z,101155.62
2018-05-13T12:00:18.516Z,101158.64
2018-05-13T12:02:47.093Z,101160.48
2018-05-13T12:05:16.321Z,101157.97
2018-05-13T12:07:46.720Z,101163.25
2018-05-13T12:10:15.212Z,101156.45
2018-05-13T12:12:44.420Z,101157.22
2018-05-13T12:15:12.994Z,101157.55
2018-05-13T12:17:41.379Z,101157.22
2018-05-13T12:20:10.982Z,101161.27
2018-05-13T12:22:39.377Z,101162.27
2018-05-13T12:25:07.757Z,101155.06
2018-05-13T12:27:37.038Z,101157.02
2018-05-13T12:30:05.567Z,101148.08
2018-05-13T12:32:34.065Z,101148.92
2018-05-13T12:35:02.521Z,101145.36
2018-05-13T12:37:31.161Z,101147.52
2018-05-13T12:39:59.661Z,101145.94
2018-05-13T12:42:28.634Z,101148.84
2018-05-13T12:44:57.226Z,101144.20
2018-05-13T12:47:25.685Z,101134.18
2018-05-13T12:49:54.390Z,101134.21
2018-05-13T12:52:22.677Z,101133.14
2018-05-13T12:54:51.024Z,101129.80
2018-05-13T12:57:20.808Z,101128.22
2018-05-13T12:59:49.168Z,101129.52
2018-05-13T13:02:17.528Z,101134.87
2018-05-13T13:04:46.111Z,101129.67
2018-05-13T13:07:14.584Z,101129.34
2018-05-13T13:09:43.173Z,101133.36
2018-05-13T13:12:12.423Z,101124.01
2018-05-13T13:14:40.868Z,101127.83
2018-05-13T13:17:09.228Z,101124.84
2018-05-13T13:19:38.339Z,101128.09
2018-05-13T13:22:06.784Z,101133.27
2018-05-13T13:24:35.418Z,101124.36
2018-05-13T13:27:05.563Z,101133.58
2018-05-13T13:29:34.455Z,101122.31
2018-05-13T13:32:02.995Z,101124.15
2018-05-13T13:34:32.607Z,101125.48
2018-05-13T13:37:01.202Z,101122.77
2018-05-13T13:39:29.734Z,101123.55
2018-05-13T13:41:58.402Z,101115.44
2018-05-13T13:44:27.621Z,101119.42
2018-05-13T13:46:58.323Z,101112.72
2018-05-13T13:49:27.754Z,101110.70
2018-05-13T13:51:56.147Z,101106.39
2018-05-13T13:54:24.478Z,101109.62
2018-05-13T13:56:53.123Z,101111.04
2018-05-13T13:59:21.681Z,101111.77
2018-05-13T14:01:49.971Z,101107.34
2018-05-13T14:04:18.871Z,101108.23
2018-05-13T14:06:47.246Z,101115.69
2018-05-13T14:09:15.570Z,101112.23
2018-05-13T14:11:43.944Z,101104.80
2018-05-13T14:14:12.258Z,101108.04
2018-05-13T14:16:40.635Z,101109.41
2018-05-13T14:19:09.070Z,101099.80
2018-05-13T14:21:37.534Z,101100.74
2018-05-13T14:24:05.940Z,101097.84
2018-05-13T14:26:34.567Z,101097.97
2018-05-13T14:29:03.220Z,101096.14
2018-05-13T14:31:32.395Z,101098.27
2018-05-13T14:34:01.305Z,101098.09
2018-05-13T14:36:29.854Z,101093.75
2018-05-13T14:38:58.530Z,101083.66
2018-05-13T14:41:27.841Z,101093.97
2018-05-13T14:43:56.251Z,101092.69
2018-05-13T14:46:24.653Z,101084.80
2018-05-13T14:48:53.989Z,101090.07
2018-05-13T14:51:22.305Z,101093.13
2018-05-13T14:53:50.789Z,101082.59
2018-05-13T14:56:19.808Z,101090.82
2018-05-13T14:58:48.187Z,101090.63
2018-05-13T15:01:17.050Z,101085.97
2018-05-13T15:03:45.560Z,101082.97
2018-05-13T15:06:14.498Z,101081.65
2018-05-13T15:08:43.001Z,101073.16
2018-05-13T15:11:11.879Z,101076.66
2018-05-13T15:13:40.372Z,101078.28
2018-05-13T15:16:08.777Z,101068.64
2018-05-13T15:18:38.355Z,101072.02
2018-05-13T15:21:07.506Z,101067.17
2018-05-13T15:23:35.930Z,101066.12
2018-05-13T15:26:04.681Z,101068.66
2018-05-13T15:28:33.224Z,101064.60
2018-05-13T15:31:01.691Z,101063.77
2018-05-13T15:33:30.785Z,101061.45
2018-05-13T15:35:59.417Z,101062.02
2018-05-13T15:38:28.184Z,101059.69
2018-05-13T15:40:56.634Z,101054.59
2018-05-13T15:43:25.029Z,101049.66
2018-05-13T15:45:53.317Z,101058.92
2018-05-13T15:48:22.090Z,101055.59
2018-05-13T15:50:51.399Z,101049.03
2018-05-13T15:53:19.769Z,101053.58
2018-05-13T15:55:49.068Z,101046.94
2018-05-13T15:58:17.638Z,101049.36
2018-05-13T16:00:46.149Z,101048.64
2018-05-13T16:03:14.924Z,101036.42
2018-05-13T16:05:43.284Z,101042.14
2018-05-13T16:08:11.666Z,101040.34
2018-05-13T16:10:40.283Z,101034.08
2018-05-13T16:13:08.622Z,101047.66
2018-05-13T16:15:37.313Z,101041.75
2018-05-13T16:18:05.827Z,101044.38
2018-05-13T16:20:34.574Z,101051.42
2018-05-13T16:23:03.023Z,101050.03
2018-05-13T16:25:31.445Z,101055.06
2018-05-13T16:27:59.867Z,101056.58
2018-05-13T16:30:28.465Z,101052.39
2018-05-13T16:32:56.901Z,101049.66
2018-05-13T16:35:25.197Z,101058.29
2018-05-13T16:37:53.551Z,101054.50
2018-05-13T16:40:21.955Z,101055.39
2018-05-13T16:42:50.306Z,101053.56
2018-05-13T16:45:18.626Z,101045.80
2018-05-13T16:47:47.546Z,101043.61
2018-05-13T16:50:15.881Z,101040.88
2018-05-13T16:52:44.333Z,101034.36
2018-05-13T16:55:12.819Z,101046.42
2018-05-13T16:57:41.119Z,101043.03
2018-05-13T17:00:09.529Z,101039.63
2018-05-13T17:02:38.690Z,101045.45
2018-05-13T17:05:07.261Z,101046.28
2018-05-13T17:07:35.596Z,101049.39
2018-05-13T17:10:04.358Z,101052.23
2018-05-13T17:12:32.713Z,101038.78
2018-05-13T17:15:01.196Z,101051.02
2018-05-13T17:17:31.648Z,101042.41
2018-05-13T17:20:00.091Z,101045.32
2018-05-13T17:22:28.490Z,101048.73
2018-05-13T17:24:57.778Z,101047.23
2018-05-13T17:27:26.149Z,101053.36
2018-05-13T17:29:54.585Z,101056.91
2018-05-13T17:32:24.884Z,101058.95
2018-05-13T17:34:53.298Z,101057.44
2018-05-13T17:37:21.787Z,101064.48
2018-05-13T17:39:50.078Z,101061.51
2018-05-13T17:42:18.388Z,101068.47
2018-05-13T17:44:46.779Z,101062.98
2018-05-13T17:47:15.118Z,101069.38
2018-05-13T17:49:43.508Z,101067.16
2018-05-13T17:52:11.747Z,101076.18
2018-05-13T17:54:41.130Z,101071.56
2018-05-13T17:57:09.574Z,101070.93
2018-05-13T17:59:37.885Z,101078.34
2018-05-13T18:02:06.483Z,101071.10
2018-05-13T18:04:34.920Z,101073.39
2018-05-13T18:07:03.296Z,101077.97
2018-05-13T18:09:33.033Z,101079.94
2018-05-13T18:12:01.681Z,101082.84
2018-05-13T18:14:30.601Z,101083.44
2018-05-13T18:16:59.974Z,101093.20
2018-05-13T18:19:29.170Z,101093.47
2018-05-13T18:21:57.575Z,101092.49
2018-05-13T18:24:26.176Z,101092.83
2018-05-13T18:26:54.410Z,101088.19
2018-05-13T18:29:22.714Z,101095.97
2018-05-13T18:31:51.273Z,101093.14
2018-05-13T18:34:19.954Z,101100.88
2018-05-13T18:36:48.256Z,101091.42
2018-05-13T18:39:16.699Z,101093.58
2018-05-13T18:41:45.018Z,101089.63
2018-05-13T18:44:13.347Z,101092.08
2018-05-13T18:46:42.504Z,101098.21
2018-05-13T18:49:11.111Z,101097.42
2018-05-13T18:51:39.434Z,101100.97
2018-05-13T18:54:07.951Z,101102.26
2018-05-13T18:56:36.351Z,101105.39
2018-05-13T18:59:04.741Z,101106.31
2018-05-13T19:01:33.262Z,101104.55
2018-05-13T19:04:01.819Z,101112.44
2018-05-13T19:06:30.277Z,101111.27
2018-05-13T19:08:59.093Z,101112.84
2018-05-13T19:11:27.645Z,101117.97
2018-05-13T19:13:55.993Z,101117.62
2018-05-13T19:16:24.670Z,101122.61
2018-05-13T19:18:53.008Z,101127.14
2018-05-13T19:21:21.368Z,101130.27
2018-05-13T19:23:49.825Z,101127.29
2018-05-13T19:26:18.171Z,101134.13
2018-05-13T19:28:46.482Z,101140.34
2018-05-13T19:31:14.882Z,101140.77
2018-05-13T19:33:43.406Z,101141.72
2018-05-13T19:36:11.716Z,101142.45
2018-05-13T19:38:40.223Z,101152.41
2018-05-13T19:41:08.830Z,101152.14
2018-05-13T19:43:37.302Z,101159.25
2018-05-13T19:46:06.565Z,101161.50
2018-05-13T19:48:36.051Z,101166.17
2018-05-13T19:51:04.530Z,101171.93
2018-05-13T19:53:32.957Z,101171.58
2018-05-13T19:56:01.875Z,101176.88
2018-05-13T19:58:31.015Z,101177.42
2018-05-13T20:00:59.504Z,101186.03
2018-05-13T20:03:28.163Z,101184.56
2018-05-13T20:05:56.388Z,101178.23
2018-05-13T20:08:24.782Z,101171.20
2018-05-13T20:10:53.110Z,101181.66
2018-05-13T20:13:21.410Z,101178.69
2018-05-13T20:15:50.462Z,101185.97
2018-05-13T20:18:18.768Z,101191.22
2018-05-13T20:20:47.230Z,101182.72
2018-05-13T20:23:25.653Z,101189.86
2018-05-13T20:25:53.858Z,101189.99
2018-05-13T20:28:22.196Z,101195.05
2018-05-13T20:30:50.802Z,101186.03
2018-05-13T20:33:20.294Z,101192.50
2018-05-13T20:35:48.623Z,101195.22
2018-05-13T20:38:17.047Z,101187.39
2018-05-13T20:40:45.415Z,101194.91
2018-05-13T20:43:13.717Z,101188.20
2018-05-13T20:45:42.667Z,101190.34
2018-05-13T20:48:11.150Z,101190.64
2018-05-13T20:50:39.525Z,101185.72
2018-05-13T20:53:07.910Z,101190.48
2018-05-13T20:55:36.333Z,101187.27
2018-05-13T20:58:04.703Z,101186.89
2018-05-13T21:00:33.596Z,101191.39
2018-05-13T21:03:02.043Z,101189.59
2018-05-13T21:05:30.578Z,101195.84
2018-05-13T21:07:59.965Z,101198.06
2018-05-13T21:10:28.388Z,101197.42
2018-05-13T21:12:56.760Z,101194.48
2018-05-13T21:15:25.337Z,101205.77
2018-05-13T21:17:53.663Z,101197.74
2018-05-13T21:20:22.964Z,101208.67
2018-05-13T21:22:52.301Z,101212.01
2018-05-13T21:25:20.621Z,101208.56
2018-05-13T21:27:48.930Z,101206.00
2018-05-13T21:30:18.032Z,101210.52
2018-05-13T21:32:46.361Z,101213.05
2018-05-13T21:35:14.752Z,101216.35
2018-05-13T21:37:43.121Z,101215.47
2018-05-13T21:40:11.505Z,101209.86
2018-05-13T21:42:39.912Z,101216.52
2018-05-13T21:45:08.474Z,101219.02
2018-05-13T21:47:36.969Z,101212.08
2018-05-13T21:50:05.447Z,101213.67
2018-05-13T21:52:33.859Z,101216.41
2018-05-13T21:55:02.289Z,101214.16
2018-05-13T21:57:31.222Z,101212.92
2018-05-13T22:00:00.572Z,101216.70
2018-05-13T22:02:29.228Z,101219.97
2018-05-13T22:04:59.596Z,101222.23
2018-05-13T22:07:28.529Z,101222.94
2018-05-13T22:10:00.147Z,101222.25
2018-05-13T22:12:28.710Z,101214.77
2018-05-13T22:14:57.319Z,101226.48
2018-05-13T22:17:25.733Z,101230.05
2018-05-13T22:19:54.069Z,101230.97
2018-05-13T22:22:22.561Z,101230.67
2018-05-13T22:24:50.934Z,101222.88
2018-05-13T22:27:19.310Z,101231.44
2018-05-13T22:29:47.648Z,101223.92
2018-05-13T22:32:15.974Z,101229.19
2018-05-13T22:37:36.050Z,101231.56
2018-05-13T22:40:04.432Z,101230.00
2018-05-13T22:42:32.979Z,101233.81
2018-05-13T22:45:02.234Z,101233.86
2018-05-13T22:47:30.611Z,101234.88
2018-05-13T22:49:59.007Z,101235.14
2018-05-13T22:52:27.712Z,101236.89
2018-05-13T22:54:56.053Z,101233.37
2018-05-13T22:57:24.479Z,101239.52
2018-05-13T22:59:52.805Z,101233.28
2018-05-13T23:02:21.143Z,101233.97
2018-05-13T23:04:49.449Z,101226.22
2018-05-13T23:07:17.817Z,101228.97
2018-05-13T23:09:46.121Z,101229.63
2018-05-13T23:12:14.574Z,101222.02
2018-05-13T23:14:42.898Z,101225.00
2018-05-13T23:17:11.241Z,101228.51
2018-05-13T23:19:39.588Z,101220.63
2018-05-13T23:22:08.402Z,101219.87
2018-05-13T23:24:36.778Z,101223.55
2018-05-13T23:27:05.079Z,101220.14
2018-05-13T23:29:33.488Z,101223.68
2018-05-13T23:32:01.824Z,101223.48
2018-05-13T23:34:30.230Z,101220.63
2018-05-13T23:36:58.678Z,101219.34
2018-05-13T23:39:27.157Z,101213.37
2018-05-13T23:41:55.547Z,101214.64
2018-05-13T23:44:24.425Z,101219.67
2018-05-13T23:46:52.774Z,101215.38
2018-05-13T23:49:21.259Z,101218.27
2018-05-13T23:51:49.821Z,101220.69
2018-05-13T23:54:18.145Z,101220.09
2018-05-13T23:56:46.503Z,101220.69
2018-05-13T23:59:15.293Z,101220.88
